Nearby METAR Reports

 

KIAG - Niagara Falls, New York, USA
Distance from station: W 12mi, 20km
Updated: 05/23/2019 8:53pm
Partly cloudy
Partly cloudy
 Wind from WNW
Wind: WNW 17 mph , 28 km/h, Gust: 26 mph , 43 km/h
Temperature: 68°F , 20°C
Dew Point: 48°F , 9°C
Humidity: 49%
Barometer: 1010.8 hPa
Clouds: Partly cloudy
Visibility: 10 miles , 16 km
Cloud details: Partly cloudy 5000 ft
2019/05/24 00:53 KIAG 240053Z 29015G23KT 10SM SCT050 20/09 A2985 RMK AO2 SLP108 T02000089 $
KBUF - Buffalo/Cheektow, New York, USA
Distance from station: S 13mi, 21km
Updated: 05/23/2019 8:54pm
Few Clouds
Few Clouds
 Wind from SW
Wind: SW 10 mph , 17 km/h
Temperature: 57°F , 14°C
Dew Point: 52°F , 11°C
Humidity: 82%
Barometer: 1011.5 hPa
Clouds: Few Clouds
Visibility: 10 miles , 16 km
Cloud details: Few Clouds 5000 ft
Few Clouds 5500 ft
2019/05/24 00:54 KBUF 240054Z 22009KT 10SM FEW050 FEW055 14/11 A2987 RMK AO2 SLP112 T01390106
 
KROC - Rochester, New York, USA
Distance from station: E 51mi, 82km
Updated: 05/23/2019 8:54pm
Few Clouds
Few Clouds
 Wind from W
Wind: W 7 mph , 11 km/h
Temperature: 70°F , 21°C
Dew Point: 57°F , 14°C
Humidity: 64%
Barometer: 1009.8 hPa
Clouds: Few Clouds
Visibility: 10 miles , 16 km
Cloud details: Few Clouds 2000 ft
2019/05/24 00:54 KROC 240054Z 28006KT 10SM FEW020 21/14 A2982 RMK AO2 SLP098 T02060139
CYSN - St. Catharines A, Ontario, Canada
Distance from station: WNW 25mi, 40km
Updated: 05/23/2019 9:00pm
Partly cloudy
Partly cloudy
 Wind from W
Wind: W 17 mph , 28 km/h, Gust: 26 mph , 43 km/h
Temperature: 68°F , 20°C
Dew Point: 48°F , 9°C
Humidity: 49%
Barometer: 1010.5 hPa
Clouds: Partly cloudy
Visibility: 15 miles , 24 km
Cloud details: Partly cloudy 6000 ft
2019/05/24 01:00 CYSN 240100Z 28015G23KT 15SM SCT060 20/09 A2984 RMK SC3 LAST STFD OBS/NEXT 24 1100UTC SLP108 DENSITY ALT 1100FT
 
KOLE - Olean, New York, USA
Distance from station: SSE 63mi, 102km
Updated: 05/23/2019 8:55pm
Clear
Clear
 Wind from W
Wind: W 8 mph , 13 km/h, Gust: 22 mph , 35 km/h
Temperature: 64°F , 18°C
Dew Point: 54°F , 12°C
Humidity: 68%
Barometer: 1013.2 hPa
Clouds: Clear
Visibility: 10 miles , 16 km
2019/05/24 00:55 KOLE 240055Z AUTO 28007G19KT 210V020 10SM CLR 18/12 A2992 RMK AO2
KJHW - Jamestown, New York, USA
Distance from station: SSW 74mi, 119km
Updated: 05/23/2019 8:56pm
Clear
Clear
 Wind from W
Wind: W 12 mph , 19 km/h, Gust: 28 mph , 44 km/h
Temperature: 66°F , 19°C
Dew Point: 50°F , 10°C
Humidity: 56%
Barometer: 1013.9 hPa
Clouds: Clear
Visibility: 10 miles , 16 km
2019/05/24 00:56 KJHW 240056Z AUTO 28010G24KT 10SM CLR 19/10 A2994 RMK AO2 SLP137 T01940100
 
CWWZ - Port Weller (mar, Ontario, Canada
Distance from station: WNW 28mi, 45km
Updated: 05/23/2019 9:00pm

 Wind from W
Wind: W 20 mph , 31 km/h
Temperature: 55°F , 13°C
Dew Point: 48°F , 9°C
Humidity: 77%
2019/05/24 01:00 CWWZ 240100Z AUTO 28017KT 13/09 RMK AO1 PK WND 29019/0015 SLP108 T01320086 53021
CWPC - Port Colborne(Au, Ontario, Canada
Distance from station: WSW 33mi, 53km
Updated: 05/23/2019 9:00pm

 Wind from W
Wind: W 20 mph , 31 km/h
Temperature: 52°F , 11°C
Dew Point: 48°F , 9°C
Humidity: 88%
2019/05/24 01:00 CWPC 240100Z AUTO 27017KT 11/09 RMK AO1 PK WND 26020/0031 SLP120 T01120091 53014
 
CXVN - Vineland (au8), Ontario, Canada
Distance from station: W 36mi, 58km
Updated: 05/23/2019 9:00pm

 Wind from W
Wind: W 16 mph , 26 km/h, Gust: 22 mph , 35 km/h
Temperature: 68°F , 20°C
Dew Point: 50°F , 10°C
Humidity: 53%
2019/05/24 01:00 CXVN 240100Z AUTO 28014G19KT 20/10 RMK AO1 PK WND 27023/0048 SLP101 T02030095 53019
CYTZ - Toronto Il Vor, Ontario, Canada
Distance from station: NW 50mi, 81km
Updated: 05/23/2019 9:00pm
Overcast
Overcast
 Wind from NW
Wind: NW 16 mph , 26 km/h, Gust: 32 mph , 52 km/h
Clouds: Overcast
Visibility: 9 miles , 14 km
Cloud details: Overcast 7500 ft
2019/05/24 01:00 CYTZ 240100Z AUTO 32014G28KT 9SM OVC075 RMK T MISG TD MISG DENSITY ALT MISG
 
CXTO - Toronto City, Ontario, Canada
Distance from station: NW 52mi, 84km
Updated: 05/23/2019 9:00pm

 
Temperature: 68°F , 20°C
Dew Point: 43°F , 6°C
Humidity: 40%
2019/05/24 01:00 CXTO 240100Z AUTO 20/06 RMK AO1 SLP112 T01980061 53027
KDKK - Dunkirk, New York, USA
Distance from station: SW 52mi, 84km
Updated: 05/23/2019 8:53pm
Clear
Clear
 Wind from WSW
Wind: WSW 18 mph , 30 km/h, Gust: 32 mph , 52 km/h
Temperature: 66°F , 19°C
Dew Point: 46°F , 8°C
Humidity: 49%
Barometer: 1012.2 hPa
Clouds: Clear
Visibility: 10 miles , 16 km
2019/05/24 00:53 KDKK 240053Z AUTO 25016G28KT 10SM CLR 19/08 A2989 RMK AO2 PK WND 27028/0044 SLP120 T01890078
 
CYOO - Oshawa, Ontario, Canada
Distance from station: N 56mi, 90km
Updated: 05/23/2019 9:00pm
Mostly cloudy
Mostly cloudy
 Wind from NW
Wind: NW 17 mph , 28 km/h, Gust: 24 mph , 39 km/h
Temperature: 64°F , 18°C
Dew Point: 48°F , 9°C
Humidity: 56%
Barometer: 1010.5 hPa
Clouds: Mostly cloudy
Visibility: 9 miles , 14 km
Cloud details: Mostly cloudy 8500 ft
2019/05/24 01:00 CYOO 240100Z AUTO 31015G21KT 9SM BKN085 18/09 A2984 RMK SLP108 DENSITY ALT 900FT
CWWB - Burlington Piers, Ontario, Canada
Distance from station: WNW 56mi, 91km
Updated: 05/23/2019 9:00pm

 Wind from W
Wind: W 7 mph , 11 km/h
Temperature: 70°F , 21°C
Dew Point: 48°F , 9°C
Humidity: 46%
2019/05/24 01:00 CWWB 240100Z AUTO 27006KT 21/09 RMK AO1 PK WND 26018/0007 SLP111 T02100087 53023
 
CYYZ - Toronto/Pearson, Ontario, Canada
Distance from station: NW 60mi, 96km
Updated: 05/23/2019 9:00pm
Mostly cloudy
Mostly cloudy
 Wind from NNW
Wind: NNW 29 mph , 46 km/h, Gust: 38 mph , 61 km/h
Temperature: 64°F , 18°C
Dew Point: 46°F , 8°C
Humidity: 52%
Barometer: 1011.9 hPa
Clouds: Mostly cloudy
Visibility: 15 miles , 24 km
Cloud details: Few Clouds 5500 ft
Mostly cloudy 7800 ft
2019/05/24 01:00 CYYZ 240100Z 33025G33KT 15SM FEW055 BKN078 18/08 A2988 RMK CU2AC4 SLP119 DENSITY ALT 1200FT
CYKZ - Toronto Buttonvi, Ontario, Canada
Distance from station: NW 62mi, 99km
Updated: 01/03/2019 4:00am
NOT Current
Partly cloudy
Partly cloudy
 Wind from WSW
Wind: WSW 5 mph , 7 km/h
Temperature: 27°F , -3°C
Wind Chill: 21°F , -6°C
Dew Point: 23°F , -5°C
Humidity: 86%
Barometer: 1010.8 hPa
Clouds: Partly cloudy
Visibility: 15 miles , 24 km
Cloud details: Partly cloudy 4000 ft
2019/01/03 09:00 CYKZ 030900Z 25004KT 15SM SCT040 M03/M05 A2985 RMK SC3 LAST STFD OBS FAREWELL SLP118
 
CXHM - Hamilton Rbg Cs, Ontario, Canada
Distance from station: W 62mi, 100km
Updated: 05/23/2019 9:00pm

 Wind from W
Wind: W 7 mph , 11 km/h
Temperature: 70°F , 21°C
Dew Point: 48°F , 9°C
Humidity: 46%
2019/05/24 01:00 CXHM 240100Z AUTO 28006KT 21/09 RMK AO1 SLP109 T02060094 53020
KDSV - Dansville, New York, USA
Distance from station: SE 62mi, 100km
Updated: 05/23/2019 8:54pm
Clear
Clear
 Wind from WNW
Wind: WNW 8 mph , 13 km/h, Gust: 18 mph , 30 km/h
Temperature: 73°F , 23°C
Dew Point: 55°F , 13°C
Humidity: 53%
Barometer: 1010.8 hPa
Clouds: Clear
Visibility: 10 miles , 16 km
2019/05/24 00:54 KDSV 240054Z AUTO 29007G16KT 10SM CLR 23/13 A2985 RMK AO2 SLP113 T02280128
 
CYHM - Hamilton Airport, Ontario, Canada
Distance from station: W 63mi, 101km
Updated: 05/23/2019 9:00pm
Mostly cloudy
Mostly cloudy
 Wind from W
Wind: W 10 mph , 17 km/h, Gust: 21 mph , 33 km/h
Temperature: 66°F , 19°C
Dew Point: 48°F , 9°C
Humidity: 52%
Barometer: 1012.2 hPa
Clouds: Mostly cloudy
Visibility: 15 miles , 24 km
Cloud details: Mostly cloudy 7300 ft
2019/05/24 01:00 CYHM 240100Z 27009G18KT 15SM BKN073 19/09 A2989 RMK AC5 SLP122 DENSITY ALT 1500FT
CWNC - Cobourg (mars), Ontario, Canada
Distance from station: NNE 63mi, 102km
Updated: 05/23/2019 9:00pm

 Wind from NW
Wind: NW 14 mph , 22 km/h, Gust: 22 mph , 35 km/h
Temperature: 64°F , 18°C
Dew Point: 48°F , 9°C
Humidity: 56%
2019/05/24 01:00 CWNC 240100Z AUTO 32012G19KT 18/09 RMK AO1 PK WND 32022/0024 SLP088 T01790088 53018